CheckWX is a tool to help pilots better visualize weather data.  It is not intended as a substitute for an official pre-flight weather briefing.

20:48:25 UTC

KPVD METAR
Theodore Francis Green State Airport
Providence, Rhode Island, USA
Current

15 mins ago

KPVD 202033Z 17014G19KT 3/4SM R05/3500VP6000FT -RA BR OVC002 15/15 A2991 RMK AO2 P0001 T01500150
Observed
Apr-20 @ 20:33 UTC
Wind
  • 170° at 14 KTS
  • Gusting to 19 KTS
Visibility
3/4 SM
Flight Rules
LIFR
Conditions
Light Rain, Mist
Cloud Levels
  • Overcast at 200' AGL
Temperature
15°C / 59°F
Dewpoint
15°C / 59°F
Humidity
100%
Altimeter
29.91" Hg
Pressure
1012.92 hPa
Current Rain
0.01"
Previous

22 mins ago

KPVD 202026Z 16013KT 1 3/4SM R05/3500V5000FT -RA BR OVC003 15/15 A2991 RMK AO2 P0000 T01500150
Observed
Apr-20 @ 20:26 UTC
Wind
  • 160° at 13 KTS
Visibility
1 3/4 SM
Flight Rules
LIFR
Conditions
Light Rain, Mist
Cloud Levels
  • Overcast at 300' AGL
Temperature
15°C / 59°F
Dewpoint
15°C / 59°F
Humidity
100%
Altimeter
29.91" Hg
Pressure
1012.92 hPa
Current Rain
0.01"
Previous

50 mins ago

KPVD 201958Z 15010KT 10SM -RA BKN008 OVC014 16/16 A2989 RMK AO2 P0000 T01610161
Observed
Apr-20 @ 19:58 UTC
Wind
  • 150° at 10 KTS
Visibility
10 SM
Flight Rules
IFR
Conditions
Light Rain
Cloud Levels
  • Broken at 800' AGL
  • Overcast at 1,400' AGL
Temperature
16°C / 61°F
Dewpoint
16°C / 61°F
Humidity
100%
Altimeter
29.89" Hg
Pressure
1012.22 hPa
Current Rain
0.01"